Anzahl Datensätze: 48
min. Temperatur: 5.8 °C
max. Temperatur: 19.0 °C
max. Windgeschwindigkeit: 30.6 km/h
Niederschlagsumme: 0.4 mm
| Datum |
Zeit |
Temp °C |
Feuchte % |
Taupunkt °C |
Luftdruck hPa |
Wind km/h |
Windrichtung |
Strahlung w/m² |
Niederschlag mm |
|---|---|---|---|---|---|---|---|---|---|
| 09.06.2025 | 00:00 | 8.8 | 87 | 6.8 | 1024.7 | 0.0 | NNW | 0 | 0.4 |
| 09.06.2025 | 00:30 | 8.1 | 88 | 6.2 | 1024.9 | 0.0 | NW | 0 | 0.0 |
| 09.06.2025 | 01:00 | 7.6 | 88 | 5.7 | 1024.9 | 0.0 | NW | 0 | 0.0 |
| 09.06.2025 | 01:30 | 7.0 | 89 | 5.3 | 1025.1 | 0.0 | NW | 0 | 0.0 |
| 09.06.2025 | 02:00 | 6.8 | 90 | 5.3 | 1025.1 | 0.0 | NNW | 0 | 0.0 |
| 09.06.2025 | 02:30 | 6.8 | 91 | 5.4 | 1025.1 | 0.0 | NW | 0 | 0.0 |
| 09.06.2025 | 03:00 | 6.9 | 92 | 5.7 | 1025.1 | 0.0 | NW | 0 | 0.0 |
| 09.06.2025 | 03:30 | 6.7 | 91 | 5.3 | 1025.3 | 0.0 | NW | 0 | 0.0 |
| 09.06.2025 | 04:00 | 6.1 | 92 | 4.9 | 1025.2 | 0.0 | NW | 0 | 0.0 |
| 09.06.2025 | 04:30 | 5.9 | 93 | 4.9 | 1025.1 | 0.0 | NW | 0 | 0.0 |
| 09.06.2025 | 05:00 | 6.0 | 93 | 5.0 | 1025.2 | 0.0 | NW | 0 | 0.0 |
| 09.06.2025 | 05:30 | 5.8 | 93 | 4.8 | 1025.6 | 0.0 | NW | 0 | 0.0 |
| 09.06.2025 | 06:00 | 5.8 | 93 | 4.8 | 1025.7 | 0.0 | NW | 7 | 0.0 |
| 09.06.2025 | 06:30 | 5.9 | 94 | 5.0 | 1025.7 | 0.0 | NW | 16 | 0.0 |
| 09.06.2025 | 07:00 | 6.1 | 94 | 5.2 | 1025.9 | 0.0 | NW | 40 | 0.0 |
| 09.06.2025 | 07:30 | 6.8 | 94 | 5.9 | 1026.0 | 0.0 | NW | 58 | 0.0 |
| 09.06.2025 | 08:00 | 7.6 | 93 | 6.5 | 1026.1 | 0.0 | NW | 91 | 0.0 |
| 09.06.2025 | 08:30 | 8.4 | 92 | 7.2 | 1026.3 | 0.0 | NW | 105 | 0.0 |
| 09.06.2025 | 09:00 | 9.6 | 91 | 8.2 | 1026.3 | 0.0 | NNW | 169 | 0.0 |
| 09.06.2025 | 09:30 | 11.3 | 88 | 9.4 | 1026.4 | 0.0 | NNW | 323 | 0.0 |
| 09.06.2025 | 10:00 | 13.5 | 81 | 10.3 | 1026.2 | 0.0 | NW | 425 | 0.0 |
| 09.06.2025 | 10:30 | 15.1 | 73 | 10.3 | 1026.0 | 0.0 | NW | 563 | 0.0 |
| 09.06.2025 | 11:00 | 16.6 | 66 | 10.2 | 1026.1 | 0.0 | NW | 396 | 0.0 |
| 09.06.2025 | 11:30 | 16.2 | 66 | 9.8 | 1026.1 | 0.0 | NW | 1014 | 0.0 |
| 09.06.2025 | 12:00 | 17.1 | 63 | 10.0 | 1026.0 | 0.0 | NW | 271 | 0.0 |
| 09.06.2025 | 12:30 | 16.8 | 63 | 9.7 | 1026.0 | 0.0 | NW | 953 | 0.0 |
| 09.06.2025 | 13:00 | 17.8 | 58 | 9.4 | 1025.8 | 0.0 | NW | 988 | 0.0 |
| 09.06.2025 | 13:30 | 17.8 | 59 | 9.7 | 1025.7 | 0.0 | NW | 1037 | 0.0 |
| 09.06.2025 | 14:00 | 18.0 | 59 | 9.9 | 1025.5 | 0.0 | NW | 497 | 0.0 |
| 09.06.2025 | 14:30 | 18.0 | 61 | 10.4 | 1025.3 | 0.0 | NW | 865 | 0.0 |
| 09.06.2025 | 15:00 | 18.3 | 58 | 9.9 | 1025.2 | 0.0 | NW | 380 | 0.0 |
| 09.06.2025 | 15:30 | 18.8 | 60 | 10.9 | 1025.0 | 0.0 | NW | 274 | 0.0 |
| 09.06.2025 | 16:00 | 19.0 | 57 | 10.3 | 1024.9 | 0.0 | NW | 830 | 0.0 |
| 09.06.2025 | 16:30 | 18.8 | 58 | 10.4 | 1024.9 | 0.0 | NW | 262 | 0.0 |
| 09.06.2025 | 17:00 | 18.9 | 58 | 10.5 | 1024.8 | 0.0 | NW | 155 | 0.0 |
| 09.06.2025 | 17:30 | 18.9 | 57 | 10.2 | 1024.5 | 0.0 | NW | 134 | 0.0 |
| 09.06.2025 | 18:00 | 18.7 | 58 | 10.3 | 1024.3 | 0.0 | NW | 100 | 0.0 |
| 09.06.2025 | 18:30 | 18.5 | 59 | 10.3 | 1024.2 | 0.0 | NW | 107 | 0.0 |
| 09.06.2025 | 19:00 | 18.3 | 59 | 10.1 | 1024.1 | 0.0 | NW | 42 | 0.0 |
| 09.06.2025 | 19:30 | 18.1 | 59 | 10.0 | 1024.0 | 0.0 | NW | 37 | 0.0 |
| 09.06.2025 | 20:00 | 18.0 | 60 | 10.1 | 1023.9 | 0.0 | NW | 32 | 0.0 |
| 09.06.2025 | 20:30 | 17.7 | 61 | 10.1 | 1023.8 | 0.0 | NW | 21 | 0.0 |
| 09.06.2025 | 21:00 | 17.3 | 67 | 11.1 | 1023.7 | 0.0 | NW | 9 | 0.0 |
| 09.06.2025 | 21:30 | 16.4 | 71 | 11.1 | 1023.7 | 0.0 | NW | 0 | 0.0 |
| 09.06.2025 | 22:00 | 15.1 | 75 | 10.7 | 1024.0 | 0.0 | NW | 0 | 0.0 |
| 09.06.2025 | 22:30 | 13.6 | 79 | 10.0 | 1024.1 | 0.0 | NW | 0 | 0.0 |
| 09.06.2025 | 23:00 | 12.7 | 83 | 9.9 | 1024.0 | 0.0 | NW | 0 | 0.0 |
| 09.06.2025 | 23:30 | 11.8 | 84 | 9.2 | 1023.6 | 0.0 | NW | 0 | 0.0 |